createdAt,value
2023-01-20T02:47:35.805Z,1000.38
2023-01-20T02:48:35.745Z,1000.30
2023-01-20T02:49:35.734Z,1000.29
2023-01-20T02:50:35.721Z,1000.28
2023-01-20T02:51:35.710Z,1000.36
2023-01-20T02:52:35.710Z,1000.40
2023-01-20T02:53:35.685Z,1000.35
2023-01-20T02:54:35.670Z,1000.34
2023-01-20T02:55:35.664Z,1000.43
2023-01-20T02:56:35.660Z,1000.37
2023-01-20T02:57:35.652Z,1000.36
2023-01-20T02:58:40.707Z,1000.42
2023-01-20T02:59:35.625Z,1000.39
2023-01-20T03:00:35.625Z,1000.33
2023-01-20T03:01:35.900Z,1000.43
2023-01-20T03:02:35.641Z,1000.44
2023-01-20T03:03:35.706Z,1000.47
2023-01-20T03:04:35.565Z,1000.43
2023-01-20T03:05:35.573Z,1000.54
2023-01-20T03:06:35.557Z,1000.51
2023-01-20T03:07:35.544Z,1000.51
2023-01-20T03:08:35.524Z,1000.52
2023-01-20T03:09:40.533Z,1000.52
2023-01-20T03:10:35.503Z,1000.51
2023-01-20T03:11:36.308Z,1000.53
2023-01-20T03:12:35.495Z,1000.52
2023-01-20T03:13:35.466Z,1000.50
2023-01-20T03:14:35.469Z,1000.57
2023-01-20T03:15:35.440Z,1000.61
2023-01-20T03:16:35.589Z,1000.54
2023-01-20T03:17:35.438Z,1000.56
2023-01-20T03:18:35.425Z,1000.54
2023-01-20T03:19:35.433Z,1000.55
2023-01-20T03:20:40.418Z,1000.55
2023-01-20T03:21:35.385Z,1000.53
2023-01-20T03:22:35.382Z,1000.62
2023-01-20T03:23:35.354Z,1000.59
2023-01-20T03:24:35.342Z,1000.57
2023-01-20T03:25:35.350Z,1000.57
2023-01-20T03:26:35.346Z,1000.68
2023-01-20T03:27:35.308Z,1000.66
2023-01-20T03:28:35.316Z,1000.67
2023-01-20T03:29:35.292Z,1000.70
2023-01-20T03:30:35.373Z,1000.71
2023-01-20T03:31:40.507Z,1000.66
2023-01-20T03:32:35.273Z,1000.68
2023-01-20T03:33:35.249Z,1000.69
2023-01-20T03:34:35.248Z,1000.73
2023-01-20T03:35:35.246Z,1000.72
2023-01-20T03:36:35.215Z,1000.74
2023-01-20T03:37:35.220Z,1000.75
2023-01-20T03:38:35.226Z,1000.76
2023-01-20T03:39:35.174Z,1000.79
2023-01-20T03:40:35.169Z,1000.74
2023-01-20T03:41:35.155Z,1000.79
2023-01-20T03:42:40.177Z,1000.82
2023-01-20T03:43:35.154Z,1000.75
2023-01-20T03:44:35.160Z,1000.80
2023-01-20T03:45:35.241Z,1000.83
2023-01-20T03:46:35.117Z,1000.80
2023-01-20T03:47:35.091Z,1000.80
2023-01-20T03:48:35.098Z,1000.79
2023-01-20T03:49:35.096Z,1000.83
2023-01-20T03:50:35.052Z,1000.79
2023-01-20T03:51:35.081Z,1000.79
2023-01-20T03:52:47.734Z,1000.84
2023-01-20T03:53:41.058Z,1000.86
2023-01-20T03:54:35.038Z,1000.85
2023-01-20T03:55:35.003Z,1000.87
2023-01-20T03:56:34.992Z,1000.83
2023-01-20T03:57:34.971Z,1000.89
2023-01-20T03:58:35.015Z,1000.93
2023-01-20T03:59:34.964Z,1000.91
2023-01-20T04:00:34.971Z,1000.91
2023-01-20T04:01:35.041Z,1000.94
2023-01-20T04:02:34.924Z,1000.94
2023-01-20T04:03:34.973Z,1000.98
2023-01-20T04:04:39.917Z,1000.98
2023-01-20T04:05:34.900Z,1000.98
2023-01-20T04:06:34.920Z,1000.95
2023-01-20T04:07:34.934Z,1000.96
2023-01-20T04:08:34.883Z,1000.99
2023-01-20T04:09:34.844Z,1000.96
2023-01-20T04:10:34.835Z,1000.94
2023-01-20T04:11:34.850Z,1000.93
2023-01-20T04:12:34.809Z,1000.88
2023-01-20T04:13:34.822Z,1000.96
2023-01-20T04:14:34.794Z,1000.93
2023-01-20T04:15:39.805Z,1000.93
2023-01-20T04:16:34.769Z,1000.95
2023-01-20T04:17:34.765Z,1000.96
2023-01-20T04:18:34.749Z,1000.97
2023-01-20T04:19:34.778Z,1000.93
2023-01-20T04:20:34.729Z,1001.01
2023-01-20T04:21:34.708Z,1001.02
2023-01-20T04:22:34.704Z,1001.07
2023-01-20T04:23:34.703Z,1001.02
2023-01-20T04:24:34.699Z,1000.98
2023-01-20T04:25:34.666Z,1000.99
2023-01-20T04:26:39.681Z,1001.00
2023-01-20T04:27:34.643Z,1001.03
2023-01-20T04:28:34.634Z,1001.03
2023-01-20T04:29:34.637Z,1001.05
2023-01-20T04:30:34.655Z,1001.01
2023-01-20T04:31:34.703Z,1001.10
2023-01-20T04:32:34.648Z,1001.09
2023-01-20T04:33:34.599Z,1001.11
2023-01-20T04:34:34.604Z,1001.12
2023-01-20T04:35:34.559Z,1001.07
2023-01-20T04:36:34.543Z,1001.12
2023-01-20T04:37:39.552Z,1001.15
2023-01-20T04:38:34.524Z,1001.09
2023-01-20T04:39:34.545Z,1001.12
2023-01-20T04:40:34.495Z,1001.15
2023-01-20T04:41:34.504Z,1001.07
2023-01-20T04:42:34.476Z,1001.20
2023-01-20T04:43:34.471Z,1001.12
2023-01-20T04:44:34.472Z,1001.15
2023-01-20T04:45:34.485Z,1001.17
2023-01-20T04:46:36.837Z,1001.15
2023-01-20T04:47:34.428Z,1001.21
2023-01-20T04:48:39.434Z,1001.19
2023-01-20T04:49:34.409Z,1001.15
2023-01-20T04:50:34.390Z,1001.25
2023-01-20T04:51:34.412Z,1001.22
2023-01-20T04:52:34.389Z,1001.22
2023-01-20T04:53:34.361Z,1001.19
2023-01-20T04:54:34.366Z,1001.22
2023-01-20T04:55:34.362Z,1001.28
2023-01-20T04:56:34.338Z,1001.33
2023-01-20T04:57:34.322Z,1001.34
2023-01-20T04:58:34.297Z,1001.34
2023-01-20T04:59:39.319Z,1001.35
2023-01-20T05:00:34.275Z,1001.38
2023-01-20T05:01:34.398Z,1001.35
2023-01-20T05:02:34.269Z,1001.35
2023-01-20T05:03:34.266Z,1001.38
2023-01-20T05:04:34.248Z,1001.41
2023-01-20T05:05:34.231Z,1001.36
2023-01-20T05:06:35.032Z,1001.37
2023-01-20T05:07:34.211Z,1001.46
2023-01-20T05:08:34.240Z,1001.42
2023-01-20T05:09:34.246Z,1001.43
2023-01-20T05:10:39.206Z,1001.43
2023-01-20T05:11:34.172Z,1001.39
2023-01-20T05:12:34.146Z,1001.40
2023-01-20T05:13:34.143Z,1001.41
2023-01-20T05:14:34.133Z,1001.45
2023-01-20T05:15:34.131Z,1001.44
2023-01-20T05:16:34.100Z,1001.50
2023-01-20T05:17:34.097Z,1001.51
2023-01-20T05:18:34.080Z,1001.43
2023-01-20T05:19:34.089Z,1001.51
2023-01-20T05:20:34.083Z,1001.54
2023-01-20T05:21:39.165Z,1001.55
2023-01-20T05:22:34.051Z,1001.49
2023-01-20T05:23:34.024Z,1001.52
2023-01-20T05:24:34.014Z,1001.52
2023-01-20T05:25:34.023Z,1001.52
2023-01-20T05:26:34.006Z,1001.53
2023-01-20T05:27:33.982Z,1001.58
2023-01-20T05:28:34.064Z,1001.60
2023-01-20T05:29:33.971Z,1001.56
2023-01-20T05:30:34.088Z,1001.66
2023-01-20T05:31:34.031Z,1001.61
2023-01-20T05:32:39.034Z,1001.63
2023-01-20T05:33:33.929Z,1001.61
2023-01-20T05:34:33.901Z,1001.63
2023-01-20T05:35:33.921Z,1001.66
2023-01-20T05:36:33.876Z,1001.62
2023-01-20T05:37:33.870Z,1001.65
2023-01-20T05:38:33.872Z,1001.63
2023-01-20T05:39:33.846Z,1001.64
2023-01-20T05:40:33.855Z,1001.71
2023-01-20T05:41:33.827Z,1001.73
2023-01-20T05:42:33.840Z,1001.70
2023-01-20T05:43:38.822Z,1001.76
2023-01-20T05:44:33.851Z,1001.73
2023-01-20T05:45:33.790Z,1001.74
2023-01-20T05:46:33.824Z,1001.73
2023-01-20T05:47:33.762Z,1001.82
2023-01-20T05:48:33.759Z,1001.81
2023-01-20T05:49:33.745Z,1001.75
2023-01-20T05:50:33.739Z,1001.82
2023-01-20T05:51:33.724Z,1001.86
2023-01-20T05:52:33.722Z,1001.83
2023-01-20T05:53:33.755Z,1001.81
2023-01-20T05:54:38.709Z,1001.85
2023-01-20T05:55:33.689Z,1001.94
2023-01-20T05:56:33.660Z,1001.97
2023-01-20T05:57:33.651Z,1001.92
2023-01-20T05:58:33.664Z,1001.96
2023-01-20T05:59:33.634Z,1002.04
2023-01-20T06:00:33.629Z,1002.07
2023-01-20T06:01:33.641Z,1002.08
2023-01-20T06:02:33.612Z,1002.13
2023-01-20T06:03:33.640Z,1002.07
2023-01-20T06:04:33.644Z,1002.06
2023-01-20T06:05:38.602Z,1002.09
2023-01-20T06:06:33.553Z,1002.17
2023-01-20T06:07:33.552Z,1002.20
2023-01-20T06:08:33.527Z,1002.15
2023-01-20T06:09:33.527Z,1002.22
2023-01-20T06:10:33.537Z,1002.22
2023-01-20T06:11:33.503Z,1002.26
2023-01-20T06:12:33.481Z,1002.25
2023-01-20T06:13:33.474Z,1002.24
2023-01-20T06:14:33.476Z,1002.23
2023-01-20T06:15:33.454Z,1002.21
2023-01-20T06:16:38.472Z,1002.26
2023-01-20T06:17:33.429Z,1002.30
2023-01-20T06:18:33.415Z,1002.30
2023-01-20T06:19:33.414Z,1002.35
2023-01-20T06:20:33.391Z,1002.32
2023-01-20T06:21:33.401Z,1002.26
2023-01-20T06:22:33.371Z,1002.31
2023-01-20T06:23:33.371Z,1002.29
2023-01-20T06:24:33.389Z,1002.36
2023-01-20T06:25:33.377Z,1002.32
2023-01-20T06:26:33.388Z,1002.32
2023-01-20T06:27:38.344Z,1002.36
2023-01-20T06:28:33.316Z,1002.37
2023-01-20T06:29:33.294Z,1002.34
2023-01-20T06:30:33.422Z,1002.28
2023-01-20T06:31:33.355Z,1002.31
2023-01-20T06:32:33.359Z,1002.37
2023-01-20T06:33:33.268Z,1002.33
2023-01-20T06:34:33.238Z,1002.36
2023-01-20T06:35:33.230Z,1002.39
2023-01-20T06:36:33.227Z,1002.48
2023-01-20T06:37:33.207Z,1002.39
2023-01-20T06:38:38.278Z,1002.45
2023-01-20T06:39:33.265Z,1002.43
2023-01-20T06:40:33.229Z,1002.43
2023-01-20T06:41:33.245Z,1002.43
2023-01-20T06:42:33.274Z,1002.43
2023-01-20T06:43:33.141Z,1002.49
2023-01-20T06:44:33.143Z,1002.46
2023-01-20T06:45:33.124Z,1002.49
2023-01-20T06:46:33.250Z,1002.51
2023-01-20T06:47:33.122Z,1002.51
2023-01-20T06:48:33.103Z,1002.55
2023-01-20T06:49:38.125Z,1002.56
2023-01-20T06:50:33.083Z,1002.51
2023-01-20T06:51:33.068Z,1002.59
2023-01-20T06:52:33.057Z,1002.57
2023-01-20T06:53:33.048Z,1002.65
2023-01-20T06:54:33.022Z,1002.62
2023-01-20T06:55:33.074Z,1002.62
2023-01-20T06:56:33.161Z,1002.66
2023-01-20T06:57:33.037Z,1002.75
2023-01-20T06:58:32.988Z,1002.71
2023-01-20T06:59:32.980Z,1002.71
2023-01-20T07:00:37.984Z,1002.73
2023-01-20T07:01:33.073Z,1002.67
2023-01-20T07:02:33.001Z,1002.77
2023-01-20T07:03:32.932Z,1002.74
2023-01-20T07:04:32.976Z,1002.81
2023-01-20T07:05:32.897Z,1002.86
2023-01-20T07:06:32.907Z,1002.85
2023-01-20T07:07:32.903Z,1002.85
2023-01-20T07:08:32.902Z,1002.85
2023-01-20T07:09:32.870Z,1002.88
2023-01-20T07:10:32.848Z,1002.92
2023-01-20T07:11:37.877Z,1002.91
2023-01-20T07:12:32.868Z,1002.88
2023-01-20T07:13:32.851Z,1002.89
2023-01-20T07:14:32.795Z,1002.93
2023-01-20T07:15:32.869Z,1003.03
2023-01-20T07:16:32.897Z,1003.00
2023-01-20T07:17:32.763Z,1003.02
2023-01-20T07:18:32.813Z,1003.04
2023-01-20T07:19:32.779Z,1002.97
2023-01-20T07:20:32.755Z,1003.01
2023-01-20T07:21:32.749Z,1002.98
2023-01-20T07:22:37.744Z,1003.07
2023-01-20T07:23:32.758Z,1003.09
2023-01-20T07:24:32.704Z,1003.13
2023-01-20T07:25:32.692Z,1003.13
2023-01-20T07:26:32.709Z,1003.09
2023-01-20T07:27:32.664Z,1003.11
2023-01-20T07:28:32.663Z,1003.16
2023-01-20T07:29:32.634Z,1003.15
2023-01-20T07:30:32.655Z,1003.23
2023-01-20T07:31:32.704Z,1003.22
2023-01-20T07:32:32.600Z,1003.21
2023-01-20T07:33:37.680Z,1003.19
2023-01-20T07:34:32.581Z,1003.20
2023-01-20T07:35:32.576Z,1003.28
2023-01-20T07:36:32.650Z,1003.26
2023-01-20T07:37:32.556Z,1003.27
2023-01-20T07:38:32.536Z,1003.31
2023-01-20T07:39:32.526Z,1003.32
2023-01-20T07:40:32.578Z,1003.31
2023-01-20T07:41:32.524Z,1003.35
2023-01-20T07:42:32.528Z,1003.30
2023-01-20T07:43:32.652Z,1003.29
2023-01-20T07:44:37.494Z,1003.33
2023-01-20T07:45:32.541Z,1003.35
2023-01-20T07:46:32.466Z,1003.37
2023-01-20T07:47:32.459Z,1003.41
2023-01-20T07:48:32.452Z,1003.39
2023-01-20T07:49:32.491Z,1003.42
2023-01-20T07:50:32.477Z,1003.48
2023-01-20T07:51:32.396Z,1003.41
2023-01-20T07:52:32.423Z,1003.42
2023-01-20T07:53:32.373Z,1003.44
2023-01-20T07:54:32.402Z,1003.43
2023-01-20T07:55:37.368Z,1003.43
2023-01-20T07:56:32.342Z,1003.39
2023-01-20T07:57:32.354Z,1003.39
2023-01-20T07:58:32.328Z,1003.45
2023-01-20T07:59:32.313Z,1003.43
2023-01-20T08:00:32.356Z,1003.44
2023-01-20T08:01:32.375Z,1003.43
2023-01-20T08:02:32.305Z,1003.48
2023-01-20T08:03:32.274Z,1003.46
2023-01-20T08:04:32.271Z,1003.50
2023-01-20T08:05:32.255Z,1003.56
2023-01-20T08:06:37.249Z,1003.46
2023-01-20T08:07:32.237Z,1003.53
2023-01-20T08:08:32.234Z,1003.51
2023-01-20T08:09:32.212Z,1003.45
2023-01-20T08:10:32.204Z,1003.58
2023-01-20T08:11:32.225Z,1003.58
2023-01-20T08:12:32.223Z,1003.55
2023-01-20T08:13:32.141Z,1003.61
2023-01-20T08:14:32.182Z,1003.65
2023-01-20T08:15:32.141Z,1003.65
2023-01-20T08:16:32.152Z,1003.69
2023-01-20T08:17:37.170Z,1003.57
2023-01-20T08:18:32.176Z,1003.68
2023-01-20T08:19:32.077Z,1003.67
2023-01-20T08:20:32.075Z,1003.67
2023-01-20T08:21:32.098Z,1003.70
2023-01-20T08:22:32.191Z,1003.63
2023-01-20T08:23:32.047Z,1003.74
2023-01-20T08:24:32.026Z,1003.67
2023-01-20T08:25:32.028Z,1003.73
2023-01-20T08:26:32.003Z,1003.73
2023-01-20T08:27:32.019Z,1003.77
2023-01-20T08:28:37.029Z,1003.70
2023-01-20T08:29:31.984Z,1003.68
2023-01-20T08:30:32.078Z,1003.73
2023-01-20T08:31:32.074Z,1003.69
2023-01-20T08:32:31.931Z,1003.77
2023-01-20T08:33:31.970Z,1003.78
2023-01-20T08:34:31.922Z,1003.78
2023-01-20T08:35:31.999Z,1003.77
2023-01-20T08:36:31.923Z,1003.88
2023-01-20T08:37:31.928Z,1003.86
2023-01-20T08:38:31.884Z,1003.82
2023-01-20T08:39:36.889Z,1003.88
2023-01-20T08:40:34.017Z,1003.92
2023-01-20T08:41:32.052Z,1003.95
2023-01-20T08:42:31.843Z,1003.90
2023-01-20T08:43:31.831Z,1003.88
2023-01-20T08:44:31.817Z,1003.85
2023-01-20T08:45:31.831Z,1003.87
2023-01-20T08:46:31.777Z,1003.89
2023-01-20T08:47:31.765Z,1003.93
2023-01-20T08:48:31.766Z,1003.90
2023-01-20T08:49:31.756Z,1003.87
2023-01-20T08:50:36.794Z,1003.98
2023-01-20T08:51:31.806Z,1003.99
2023-01-20T08:52:31.712Z,1004.03
2023-01-20T08:53:31.784Z,1003.97
2023-01-20T08:54:31.689Z,1004.03
2023-01-20T08:55:31.690Z,1003.99
2023-01-20T08:56:31.718Z,1003.98
2023-01-20T08:57:31.719Z,1004.03
2023-01-20T08:58:31.705Z,1004.01
2023-01-20T08:59:31.635Z,1003.99
2023-01-20T09:00:31.633Z,1003.99
2023-01-20T09:01:36.673Z,1004.00
2023-01-20T09:02:31.684Z,1003.99
2023-01-20T09:03:33.121Z,1004.04
2023-01-20T09:04:31.580Z,1004.08
2023-01-20T09:05:31.580Z,1004.05
2023-01-20T09:06:31.618Z,1004.04
2023-01-20T09:07:31.553Z,1004.06
2023-01-20T09:08:31.579Z,1004.08
2023-01-20T09:09:31.566Z,1003.99
2023-01-20T09:10:31.511Z,1003.97
2023-01-20T09:11:31.553Z,1004.09
2023-01-20T09:12:36.514Z,1004.00
2023-01-20T09:13:31.617Z,1004.07
2023-01-20T09:14:31.470Z,1004.05
2023-01-20T09:15:31.524Z,1004.15
2023-01-20T09:16:31.447Z,1004.19
2023-01-20T09:17:31.439Z,1004.28
2023-01-20T09:18:31.446Z,1004.32
2023-01-20T09:19:31.456Z,1004.22
2023-01-20T09:20:31.409Z,1004.28
2023-01-20T09:21:31.433Z,1004.32
2023-01-20T09:22:31.397Z,1004.31
2023-01-20T09:23:36.434Z,1004.32
2023-01-20T09:24:31.400Z,1004.34
2023-01-20T09:25:31.380Z,1004.41
2023-01-20T09:26:36.118Z,1004.40
2023-01-20T09:27:31.426Z,1004.41
2023-01-20T09:28:31.312Z,1004.42
2023-01-20T09:29:31.317Z,1004.47
2023-01-20T09:30:31.307Z,1004.41
2023-01-20T09:31:31.422Z,1004.45
2023-01-20T09:32:31.272Z,1004.44
2023-01-20T09:33:31.253Z,1004.42
2023-01-20T09:34:36.294Z,1004.45
2023-01-20T09:35:31.241Z,1004.43
2023-01-20T09:36:31.220Z,1004.48
2023-01-20T09:37:31.224Z,1004.41
2023-01-20T09:38:31.205Z,1004.43
2023-01-20T09:39:31.205Z,1004.46
2023-01-20T09:40:31.189Z,1004.48
2023-01-20T09:41:31.207Z,1004.53
2023-01-20T09:42:31.156Z,1004.49
2023-01-20T09:43:31.163Z,1004.55
2023-01-20T09:44:31.145Z,1004.61
2023-01-20T09:45:36.162Z,1004.58
2023-01-20T09:46:31.161Z,1004.60
2023-01-20T09:47:31.630Z,1004.66
2023-01-20T09:48:31.090Z,1004.64
2023-01-20T09:49:31.094Z,1004.58
2023-01-20T09:50:31.075Z,1004.61
2023-01-20T09:51:31.058Z,1004.62
2023-01-20T09:52:31.084Z,1004.63
2023-01-20T09:53:31.071Z,1004.53
2023-01-20T09:54:31.046Z,1004.56
2023-01-20T09:55:31.040Z,1004.62
2023-01-20T09:56:36.068Z,1004.62
2023-01-20T09:57:30.986Z,1004.58
2023-01-20T09:58:30.980Z,1004.58
2023-01-20T09:59:30.989Z,1004.60
2023-01-20T10:00:30.976Z,1004.52
2023-01-20T10:01:31.138Z,1004.53
2023-01-20T10:02:30.931Z,1004.64
2023-01-20T10:03:30.925Z,1004.63
2023-01-20T10:04:30.924Z,1004.64
2023-01-20T10:05:30.924Z,1004.58
2023-01-20T10:06:30.887Z,1004.54
2023-01-20T10:07:35.910Z,1004.57
2023-01-20T10:08:30.872Z,1004.60
2023-01-20T10:09:33.456Z,1004.56
2023-01-20T10:10:30.841Z,1004.53
2023-01-20T10:11:30.856Z,1004.61
2023-01-20T10:12:31.027Z,1004.68
2023-01-20T10:13:30.920Z,1004.61
2023-01-20T10:14:30.801Z,1004.61
2023-01-20T10:15:30.832Z,1004.65
2023-01-20T10:16:30.778Z,1004.69
2023-01-20T10:17:30.763Z,1004.60
2023-01-20T10:18:35.789Z,1004.67
2023-01-20T10:19:30.741Z,1004.74
2023-01-20T10:20:30.784Z,1004.64
2023-01-20T10:21:30.717Z,1004.60
2023-01-20T10:22:30.709Z,1004.59
2023-01-20T10:23:30.765Z,1004.64
2023-01-20T10:24:30.686Z,1004.59
2023-01-20T10:25:30.689Z,1004.64
2023-01-20T10:26:30.674Z,1004.58
2023-01-20T10:27:30.665Z,1004.62
2023-01-20T10:28:30.695Z,1004.66
2023-01-20T10:29:35.676Z,1004.58
2023-01-20T10:30:30.654Z,1004.66
2023-01-20T10:31:30.651Z,1004.62
2023-01-20T10:32:30.602Z,1004.58
2023-01-20T10:33:30.602Z,1004.63
2023-01-20T10:34:30.573Z,1004.62
2023-01-20T10:35:30.614Z,1004.64
2023-01-20T10:36:30.551Z,1004.64
2023-01-20T10:37:30.549Z,1004.62
2023-01-20T10:38:30.549Z,1004.59
2023-01-20T10:39:30.518Z,1004.58
2023-01-20T10:40:35.668Z,1004.58
2023-01-20T10:41:30.521Z,1004.57
2023-01-20T10:42:30.485Z,1004.57
2023-01-20T10:43:30.477Z,1004.56
2023-01-20T10:44:30.531Z,1004.51
2023-01-20T10:45:30.465Z,1004.59
2023-01-20T10:46:30.484Z,1004.56
2023-01-20T10:47:30.460Z,1004.56
2023-01-20T10:48:30.418Z,1004.57
2023-01-20T10:49:30.400Z,1004.57
2023-01-20T10:50:30.456Z,1004.61
2023-01-20T10:51:35.419Z,1004.57
2023-01-20T10:52:30.372Z,1004.57
2023-01-20T10:53:30.358Z,1004.62
2023-01-20T10:54:30.363Z,1004.65
2023-01-20T10:55:30.393Z,1004.67
2023-01-20T10:56:32.129Z,1004.69
2023-01-20T10:57:30.413Z,1004.63
2023-01-20T10:58:30.305Z,1004.67
2023-01-20T10:59:30.291Z,1004.66
2023-01-20T11:00:30.391Z,1004.70
2023-01-20T11:01:30.298Z,1004.68
2023-01-20T11:02:35.465Z,1004.70
2023-01-20T11:03:30.245Z,1004.64
2023-01-20T11:04:30.237Z,1004.71
2023-01-20T11:05:30.242Z,1004.59
2023-01-20T11:06:30.210Z,1004.59
2023-01-20T11:07:30.233Z,1004.63
2023-01-20T11:08:30.190Z,1004.63
2023-01-20T11:09:30.184Z,1004.64
2023-01-20T11:10:30.186Z,1004.65
2023-01-20T11:11:30.160Z,1004.65
2023-01-20T11:12:30.177Z,1004.71
2023-01-20T11:13:35.165Z,1004.67
2023-01-20T11:14:30.123Z,1004.71
2023-01-20T11:15:30.128Z,1004.66
2023-01-20T11:16:30.231Z,1004.73
2023-01-20T11:17:30.088Z,1004.64
2023-01-20T11:18:30.081Z,1004.62
2023-01-20T11:19:30.067Z,1004.64
2023-01-20T11:20:30.060Z,1004.65
2023-01-20T11:21:30.055Z,1004.67
2023-01-20T11:22:30.363Z,1004.65
2023-01-20T11:23:30.066Z,1004.67
2023-01-20T11:24:35.042Z,1004.65
2023-01-20T11:25:29.997Z,1004.62
2023-01-20T11:26:30.023Z,1004.59
2023-01-20T11:27:29.978Z,1004.63
2023-01-20T11:28:29.969Z,1004.69
2023-01-20T11:29:29.958Z,1004.75
2023-01-20T11:30:29.957Z,1004.77
2023-01-20T11:31:29.973Z,1004.72
2023-01-20T11:32:29.953Z,1004.80
2023-01-20T11:33:29.968Z,1004.79
2023-01-20T11:34:29.967Z,1004.78
2023-01-20T11:35:34.923Z,1004.74
2023-01-20T11:36:29.909Z,1004.69
2023-01-20T11:37:29.873Z,1004.69
2023-01-20T11:38:29.856Z,1004.74
2023-01-20T11:39:29.896Z,1004.75
2023-01-20T11:40:29.835Z,1004.77
2023-01-20T11:41:29.855Z,1004.71
2023-01-20T11:42:29.828Z,1004.75
2023-01-20T11:43:29.812Z,1004.75
2023-01-20T11:44:29.785Z,1004.73
2023-01-20T11:45:29.781Z,1004.71
2023-01-20T11:46:34.867Z,1004.73
2023-01-20T11:47:29.747Z,1004.72
2023-01-20T11:48:29.763Z,1004.69
2023-01-20T11:49:29.729Z,1004.73
2023-01-20T11:50:29.719Z,1004.78
2023-01-20T11:51:29.751Z,1004.71
2023-01-20T11:52:29.695Z,1004.60
2023-01-20T11:53:29.682Z,1004.66
2023-01-20T11:54:29.694Z,1004.63
2023-01-20T11:55:29.675Z,1004.69
2023-01-20T11:56:29.663Z,1004.70
2023-01-20T11:57:34.656Z,1004.67
2023-01-20T11:58:29.640Z,1004.59
2023-01-20T11:59:29.627Z,1004.65
2023-01-20T12:00:29.605Z,1004.66
2023-01-20T12:01:29.625Z,1004.66
2023-01-20T12:02:29.596Z,1004.66
2023-01-20T12:03:29.567Z,1004.66
2023-01-20T12:04:29.623Z,1004.56
2023-01-20T12:05:29.629Z,1004.59
2023-01-20T12:06:29.577Z,1004.61
2023-01-20T12:07:29.532Z,1004.58
2023-01-20T12:08:34.573Z,1004.60
2023-01-20T12:09:29.509Z,1004.60
2023-01-20T12:10:29.497Z,1004.63
2023-01-20T12:11:29.528Z,1004.55
2023-01-20T12:12:29.483Z,1004.60
2023-01-20T12:13:29.495Z,1004.67
2023-01-20T12:14:29.457Z,1004.67
2023-01-20T12:15:29.432Z,1004.67
2023-01-20T12:16:29.528Z,1004.68
2023-01-20T12:17:29.432Z,1004.66
2023-01-20T12:18:29.408Z,1004.62
2023-01-20T12:19:34.540Z,1004.65
2023-01-20T12:20:29.382Z,1004.60
2023-01-20T12:21:29.367Z,1004.63
2023-01-20T12:22:29.367Z,1004.68
2023-01-20T12:23:29.354Z,1004.63
2023-01-20T12:24:42.425Z,1004.61
2023-01-20T12:25:30.320Z,1004.70
2023-01-20T12:26:29.319Z,1004.65
2023-01-20T12:27:29.310Z,1004.66
2023-01-20T12:28:29.291Z,1004.65
2023-01-20T12:29:29.280Z,1004.64
2023-01-20T12:30:34.349Z,1004.59
2023-01-20T12:31:29.285Z,1004.58
2023-01-20T12:32:29.267Z,1004.60
2023-01-20T12:33:29.232Z,1004.64
2023-01-20T12:34:29.238Z,1004.65
2023-01-20T12:35:29.299Z,1004.64
2023-01-20T12:36:29.221Z,1004.63
2023-01-20T12:37:29.207Z,1004.64
2023-01-20T12:38:29.177Z,1004.63
2023-01-20T12:39:29.171Z,1004.61
2023-01-20T12:40:29.167Z,1004.72
2023-01-20T12:41:34.164Z,1004.70
2023-01-20T12:42:29.136Z,1004.67
2023-01-20T12:43:29.155Z,1004.75
2023-01-20T12:44:29.166Z,1004.69
2023-01-20T12:45:29.106Z,1004.73
2023-01-20T12:46:29.107Z,1004.67
2023-01-20T12:47:29.123Z,1004.72
2023-01-20T12:48:29.117Z,1004.74
2023-01-20T12:49:29.066Z,1004.78
2023-01-20T12:50:29.045Z,1004.70
2023-01-20T12:51:29.086Z,1004.75
2023-01-20T12:52:34.132Z,1004.65
2023-01-20T12:53:29.028Z,1004.72
2023-01-20T12:54:42.984Z,1004.68
2023-01-20T12:55:29.987Z,1004.77
2023-01-20T12:56:28.978Z,1004.75
2023-01-20T12:57:28.980Z,1004.72
2023-01-20T12:58:28.996Z,1004.75
2023-01-20T12:59:28.951Z,1004.76
2023-01-20T13:00:28.952Z,1004.77
2023-01-20T13:01:28.972Z,1004.76
2023-01-20T13:02:29.068Z,1004.77
2023-01-20T13:03:33.957Z,1004.75
2023-01-20T13:04:28.924Z,1004.75
2023-01-20T13:05:28.887Z,1004.79
2023-01-20T13:06:28.874Z,1004.77
2023-01-20T13:07:28.941Z,1004.81
2023-01-20T13:08:28.865Z,1004.81
2023-01-20T13:09:28.844Z,1004.72
2023-01-20T13:10:28.829Z,1004.71
2023-01-20T13:11:28.812Z,1004.75
2023-01-20T13:12:28.798Z,1004.77
2023-01-20T13:13:28.974Z,1004.78
2023-01-20T13:14:33.795Z,1004.81
2023-01-20T13:15:28.783Z,1004.79
2023-01-20T13:16:28.772Z,1004.85
2023-01-20T13:17:28.769Z,1004.84
2023-01-20T13:18:28.745Z,1004.81
2023-01-20T13:19:28.731Z,1004.86
2023-01-20T13:20:28.720Z,1004.79
2023-01-20T13:21:28.713Z,1004.74
2023-01-20T13:22:28.685Z,1004.81
2023-01-20T13:23:28.725Z,1004.83
2023-01-20T13:24:28.665Z,1004.82
2023-01-20T13:25:33.684Z,1004.89
2023-01-20T13:26:28.648Z,1004.80
2023-01-20T13:27:28.632Z,1004.89
2023-01-20T13:28:28.627Z,1004.89
2023-01-20T13:29:28.612Z,1004.87
2023-01-20T13:30:28.618Z,1004.86
2023-01-20T13:31:28.691Z,1004.91
2023-01-20T13:32:28.590Z,1004.90
2023-01-20T13:33:28.583Z,1004.91
2023-01-20T13:34:28.554Z,1004.93
2023-01-20T13:35:28.555Z,1004.92
2023-01-20T13:36:33.588Z,1004.87
2023-01-20T13:37:28.521Z,1004.92
2023-01-20T13:38:28.518Z,1004.92
2023-01-20T13:39:28.515Z,1004.89
2023-01-20T13:40:28.487Z,1004.80
2023-01-20T13:41:28.474Z,1004.85
2023-01-20T13:42:28.517Z,1004.87
2023-01-20T13:43:28.464Z,1004.88
2023-01-20T13:44:28.437Z,1004.86
2023-01-20T13:45:28.430Z,1004.83
2023-01-20T13:46:28.454Z,1004.81
2023-01-20T13:47:33.433Z,1004.83
2023-01-20T13:48:28.391Z,1004.86
2023-01-20T13:49:28.403Z,1004.81
2023-01-20T13:50:28.379Z,1004.83
2023-01-20T13:51:28.364Z,1004.80
2023-01-20T13:52:28.385Z,1004.82
2023-01-20T13:53:28.342Z,1004.86
2023-01-20T13:54:28.337Z,1004.84
2023-01-20T13:55:28.358Z,1004.81
2023-01-20T13:56:28.301Z,1004.81
2023-01-20T13:57:28.290Z,1004.85
2023-01-20T13:58:33.305Z,1004.89
2023-01-20T13:59:28.281Z,1004.87
2023-01-20T14:00:28.272Z,1004.79
2023-01-20T14:01:28.328Z,1004.84
2023-01-20T14:02:29.240Z,1004.85
2023-01-20T14:03:28.227Z,1004.82
2023-01-20T14:04:28.230Z,1004.85
2023-01-20T14:05:28.221Z,1004.87
2023-01-20T14:06:28.216Z,1004.91
2023-01-20T14:07:28.183Z,1004.84
2023-01-20T14:08:28.182Z,1004.85
2023-01-20T14:09:33.195Z,1004.84
2023-01-20T14:10:28.159Z,1004.92
2023-01-20T14:11:28.172Z,1004.95
2023-01-20T14:12:28.127Z,1004.93
2023-01-20T14:13:28.124Z,1004.98
2023-01-20T14:14:28.133Z,1004.97
2023-01-20T14:15:28.337Z,1004.99
2023-01-20T14:16:28.134Z,1004.95
2023-01-20T14:17:28.075Z,1004.94
2023-01-20T14:18:28.061Z,1004.98
2023-01-20T14:19:28.073Z,1005.04
2023-01-20T14:20:33.056Z,1004.93
2023-01-20T14:21:28.043Z,1004.97
2023-01-20T14:22:28.015Z,1004.93
2023-01-20T14:23:27.999Z,1004.90
2023-01-20T14:24:28.061Z,1004.90
2023-01-20T14:25:27.983Z,1004.86
2023-01-20T14:26:27.980Z,1004.82
2023-01-20T14:27:28.013Z,1004.84
2023-01-20T14:28:28.015Z,1004.88
2023-01-20T14:29:27.958Z,1004.93
2023-01-20T14:30:27.988Z,1004.89
2023-01-20T14:31:34.364Z,1004.89
2023-01-20T14:32:27.924Z,1004.91
2023-01-20T14:33:27.888Z,1004.90
2023-01-20T14:34:27.895Z,1004.93
2023-01-20T14:35:27.877Z,1004.94
2023-01-20T14:36:27.864Z,1004.96
2023-01-20T14:37:27.845Z,1005.00
2023-01-20T14:38:27.868Z,1004.93
2023-01-20T14:39:27.856Z,1004.91
2023-01-20T14:40:27.807Z,1005.03
2023-01-20T14:41:27.807Z,1005.04
2023-01-20T14:42:34.357Z,1005.01
2023-01-20T14:43:27.813Z,1005.01
2023-01-20T14:44:27.808Z,1005.03
2023-01-20T14:45:27.751Z,1004.95
2023-01-20T14:46:27.771Z,1004.98
2023-01-20T14:47:27.751Z,1004.98
2023-01-20T14:48:34.955Z,1004.95
2023-01-20T14:49:28.742Z,1005.03
2023-01-20T14:50:27.766Z,1005.05
2023-01-20T14:51:27.701Z,1005.06
2023-01-20T14:52:27.681Z,1005.02